Weather at Searcy Municipal Airport

Public forecast

Using degrees Fahrenheit for public forecast. Weather courtesy of forecast.io.

Current aviation weather report (METAR) for Searcy Municipal Airport

Retrieved 2020/09/22 14:33 UTC (5 minutes ago):

KSRC 221433Z AUTO 16006KT 10SM -RA BKN014 BKN043 OVC100 19/18 A3022 RMK AO2 CIG 009V027 P0000

Closest aviation forecast (TAF) to Searcy Municipal Airport

Closest forecast is Little Rock Air Force Base, 26.9 nm (49.7 km) SW. Retrieved 2020/09/22 15:03 UTC (0 seconds ago):

TAF KLRF 221500Z 2215/2321 10006KT 8000 -SHRA BKN006 OVC014 QNH3016INS BECMG 2217/2218 09009KT 8000 -SHRA BKN010 OVC050 QNH3009INS BECMG 2221/2222 08006KT 9999 VCSH SCT010 BKN030 OVC050 QNH3008INS BECMG 2223/2224 06006KT 9999 NSW SCT015 BKN050 OVC070 QNH3008INS BECMG 2304/2305 06006KT 4800 -SHRA BKN006 OVC015 QNH3008INS BECMG 2308/2309 07006KT 1600 +SHRA OVC005 QNH3007INS BECMG 2310/2311 08006KT 6000 -SHRA OVC007 QNH3006INS BECMG 2312/2313 06006KT 9999 NSW OVC009 QNH3006INS BECMG 2317/2318 08006KT 9999 OVC010 QNH3006INS TX21/2221Z TN16/2305Z